Time;durP1;ratioP1;P1;durP2;ratioP2;P2;SDS_P1;SDS_P2;PMS_P1;PMS_P2;Temp;Humidity;BMP_temperature;BMP_pressure;BME280_temperature;BME280_humidity;BME280_pressure;Samples;Min_cycle;Max_cycle;Signal;HPM_P1;HPM_P2
2023/04/06 00:04:29;;;;;;;58.73;12.43;;;;;;;11.85;100.00;99408.03;31347296;28;20037;-77
2023/04/06 00:19:31;;;;;;;56.27;12.20;;;;;;;11.98;100.00;99422.34;31344235;28;20053;-77
2023/04/06 00:34:34;;;;;;;106.97;13.23;;;;;;;11.94;100.00;99413.53;31359418;28;20064;-77
2023/04/06 00:49:36;;;;;;;48.80;11.07;;;;;;;11.95;100.00;99428.66;31367497;28;20114;-77
2023/04/06 01:04:38;;;;;;;61.43;11.67;;;;;;;11.84;100.00;99420.09;31361548;28;20102;-78
2023/04/06 01:19:40;;;;;;;47.67;11.20;;;;;;;11.80;100.00;99417.53;31362413;28;20057;-76
2023/04/06 01:34:42;;;;;;;47.63;11.13;;;;;;;11.78;100.00;99428.09;31346613;28;20053;-77
2023/04/06 01:49:44;;;;;;;35.90;11.07;;;;;;;11.89;100.00;99425.75;31389729;28;20061;-77
2023/04/06 02:04:46;;;;;;;39.37;10.70;;;;;;;11.93;100.00;99431.81;31367873;28;20045;-76
2023/04/06 02:19:48;;;;;;;22.40;8.97;;;;;;;11.98;100.00;99440.63;31375197;28;20053;-77
2023/04/06 02:34:50;;;;;;;28.70;8.37;;;;;;;12.03;100.00;99453.66;31364353;28;20049;-77
2023/04/06 02:49:52;;;;;;;27.47;10.10;;;;;;;11.81;100.00;99467.25;31362275;28;20076;-78
2023/04/06 03:04:54;;;;;;;20.87;9.23;;;;;;;11.84;100.00;99477.22;31352607;28;20107;-77
2023/04/06 03:19:56;;;;;;;29.90;10.30;;;;;;;11.72;100.00;99494.31;31358410;28;20082;-77
2023/04/06 03:34:58;;;;;;;88.20;10.33;;;;;;;11.60;100.00;99507.50;31364807;28;20048;-76
2023/04/06 03:50:00;;;;;;;111.60;11.93;;;;;;;11.64;100.00;99518.25;31345083;28;20061;-77
2023/04/06 04:05:02;;;;;;;230.17;13.83;;;;;;;11.56;100.00;99517.00;31347096;28;20053;-78
2023/04/06 04:20:05;;;;;;;187.00;12.17;;;;;;;11.49;100.00;99523.41;31380972;28;20049;-77
2023/04/06 04:35:08;;;;;;;251.23;16.90;;;;;;;11.49;100.00;99549.84;31368787;28;20106;-77
2023/04/06 04:50:10;;;;;;;106.50;10.13;;;;;;;11.59;100.00;99554.16;31379540;28;20056;-77
2023/04/06 05:05:12;;;;;;;159.67;12.17;;;;;;;11.63;100.00;99563.72;31354517;28;20049;-73
2023/04/06 05:20:13;;;;;;;93.40;10.60;;;;;;;11.72;100.00;99573.94;31334634;28;20095;-74
2023/04/06 05:35:17;;;;;;;39.00;9.40;;;;;;;11.92;100.00;99576.41;31360212;28;20114;-74
2023/04/06 05:50:18;;;;;;;21.33;6.17;;;;;;;11.88;100.00;99581.22;31355971;28;20469;-75
2023/04/06 06:05:20;;;;;;;16.57;4.93;;;;;;;12.04;100.00;99604.78;31337930;28;20102;-74
2023/04/06 06:20:22;;;;;;;3.43;2.00;;;;;;;11.81;100.00;99614.81;31378225;28;20053;-73
2023/04/06 06:35:25;;;;;;;5.13;2.17;;;;;;;11.58;100.00;99634.94;31373711;28;20052;-73
2023/04/06 06:50:27;;;;;;;3.03;1.83;;;;;;;11.33;100.00;99653.22;31339490;28;20143;-74
2023/04/06 07:05:29;;;;;;;3.73;1.43;;;;;;;11.10;100.00;99676.03;31322975;28;20259;-72
2023/04/06 07:20:31;;;;;;;0.60;0.60;;;;;;;10.92;100.00;99709.84;31353040;28;20424;-75
2023/04/06 07:35:34;;;;;;;1.10;0.70;;;;;;;10.93;100.00;99718.75;31343206;28;20132;-76
2023/04/06 07:50:37;;;;;;;1.17;0.70;;;;;;;11.00;100.00;99724.00;31352049;28;20110;-76
2023/04/06 08:05:39;;;;;;;1.30;1.20;;;;;;;11.20;100.00;99742.84;31328596;28;20055;-76
2023/04/06 08:20:41;;;;;;;5.70;1.33;;;;;;;11.03;100.00;99757.69;31344648;28;20048;-80
2023/04/06 08:35:43;;;;;;;2.73;0.90;;;;;;;11.05;100.00;99777.81;31324307;28;20058;-78
2023/04/06 08:50:46;;;;;;;1.90;0.97;;;;;;;10.97;100.00;99795.47;31326492;28;20124;-79
2023/04/06 09:05:48;;;;;;;0.80;0.77;;;;;;;11.19;100.00;99818.16;31368904;28;20071;-78
2023/04/06 09:21:02;;;;;;;6.03;1.37;;;;;;;11.15;100.00;99814.78;31391789;28;21807;-77
2023/04/06 09:36:04;;;;;;;8.93;1.83;;;;;;;11.27;100.00;99845.94;31356653;28;20048;-78
2023/04/06 09:51:08;;;;;;;10.40;2.20;;;;;;;11.24;100.00;99866.56;31349136;28;20083;-84
2023/04/06 10:06:52;;;;;;;;;;;;;;;;;;;;;
2023/04/06 10:22:12;;;;;;;8.13;4.00;;;;;;;11.49;100.00;99892.31;31310002;28;20049;-74
2023/04/06 10:37:15;;;;;;;;;;;;;;;11.17;100.00;99921.06;31331957;28;20087;-75
2023/04/06 10:52:17;;;;;;;8.07;4.07;;;;;;;11.67;100.00;99925.22;31366187;28;19921;-80
2023/04/06 11:07:24;;;;;;;6.67;3.00;;;;;;;11.77;100.00;99929.66;31341985;28;20045;-83
2023/04/06 11:22:26;;;;;;;10.70;3.63;;;;;;;11.53;100.00;99931.06;31381147;28;20114;-75
2023/04/06 11:37:28;;;;;;;8.67;3.20;;;;;;;11.84;100.00;99945.00;31361759;28;20569;-75
2023/04/06 11:52:31;;;;;;;9.97;3.07;;;;;;;11.74;100.00;99946.78;31314914;28;20497;-76
2023/04/06 12:07:33;;;;;;;7.17;2.77;;;;;;;11.63;100.00;99957.19;31351710;28;20049;-73
2023/04/06 12:22:34;;;;;;;6.80;3.40;;;;;;;11.50;100.00;99967.25;31367426;28;20350;-74
2023/04/06 12:37:37;;;;;;;6.73;3.13;;;;;;;11.37;100.00;99988.13;31358567;28;20551;-76
2023/04/06 12:52:38;;;;;;;7.67;2.63;;;;;;;11.55;100.00;99999.34;31349165;28;20053;-76
2023/04/06 13:07:40;;;;;;;4.40;2.73;;;;;;;11.53;100.00;100012.59;31417652;28;20101;-82
2023/04/06 13:22:42;;;;;;;4.97;3.00;;;;;;;11.34;100.00;100021.63;31412842;28;20056;-79
2023/04/06 13:37:45;;;;;;;7.27;3.33;;;;;;;10.97;100.00;100031.00;31427501;28;20044;-86
2023/04/06 13:52:47;;;;;;;3.87;2.80;;;;;;;11.10;100.00;100032.63;31399096;28;20550;-83
2023/04/06 14:07:49;;;;;;;4.80;2.83;;;;;;;10.91;100.00;100041.59;31401990;28;20090;-77
2023/04/06 14:22:54;;;;;;;5.70;2.30;;;;;;;10.80;100.00;100062.81;31385771;28;20053;-82
2023/04/06 14:37:59;;;;;;;3.73;2.40;;;;;;;10.97;100.00;100058.94;31377998;28;20053;-87
2023/04/06 14:53:01;;;;;;;4.57;2.40;;;;;;;11.03;100.00;100068.13;31424426;28;20067;-87
2023/04/06 15:08:03;;;;;;;5.10;2.93;;;;;;;11.26;100.00;100065.25;31427849;28;20479;-82
2023/04/06 15:23:05;;;;;;;8.03;3.93;;;;;;;11.23;100.00;100071.53;31403218;28;20048;-84
2023/04/06 15:38:09;;;;;;;15.77;5.80;;;;;;;11.25;100.00;100080.03;31390529;28;20041;-78
2023/04/06 15:53:43;;;;;;;10.10;4.93;;;;;;;11.02;100.00;100095.69;31362147;28;20416;-85
2023/04/06 16:08:45;;;;;;;9.57;5.10;;;;;;;11.04;100.00;100107.69;31366898;28;20049;-79
2023/04/06 16:23:47;;;;;;;15.40;5.30;;;;;;;10.96;100.00;100125.31;31332138;28;20849;-79
2023/04/06 16:38:49;;;;;;;14.40;5.60;;;;;;;10.98;100.00;100146.63;31387892;28;20114;-84
2023/04/06 16:53:52;;;;;;;9.03;5.90;;;;;;;10.89;100.00;100158.78;31383944;28;20056;-86
2023/04/06 17:08:54;;;;;;;8.47;5.37;;;;;;;10.91;100.00;100180.09;31408930;28;20049;-90
2023/04/06 17:23:59;;;;;;;5.88;4.07;;;;;;;10.89;100.00;100198.75;31368945;28;20447;-76
2023/04/06 17:39:02;;;;;;;8.60;5.17;;;;;;;10.84;100.00;100223.72;31381734;28;20515;-77
2023/04/06 17:54:04;;;;;;;7.70;5.40;;;;;;;10.77;100.00;100207.53;31391647;28;20106;-79
2023/04/06 18:09:06;;;;;;;45.17;16.57;;;;;;;10.83;100.00;100219.47;31382746;28;20461;-77
2023/04/06 18:24:08;;;;;;;34.87;18.70;;;;;;;10.81;100.00;100240.84;31393049;28;20064;-78
2023/04/06 18:39:23;;;;;;;21.13;10.77;;;;;;;10.76;100.00;100233.94;31382125;28;20049;-78
2023/04/06 18:54:25;;;;;;;9.53;5.00;;;;;;;10.65;100.00;100232.56;31368337;28;20055;-76
2023/04/06 19:09:27;;;;;;;5.60;3.30;;;;;;;10.50;100.00;100248.34;31342911;28;20104;-78
2023/04/06 19:24:29;;;;;;;7.80;3.20;;;;;;;10.61;100.00;100245.47;31358909;28;20585;-77
2023/04/06 19:39:33;;;;;;;7.17;3.37;;;;;;;10.56;100.00;100247.47;31364649;28;20064;-76
2023/04/06 19:54:35;;;;;;;45.23;19.00;;;;;;;10.58;100.00;100257.94;31366402;28;20091;-77
2023/04/06 20:09:37;;;;;;;14.33;5.57;;;;;;;10.62;100.00;100266.00;31366014;28;20083;-78
2023/04/06 20:24:39;;;;;;;7.33;3.57;;;;;;;10.51;100.00;100272.38;31341967;28;20053;-77
2023/04/06 20:39:41;;;;;;;5.13;3.70;;;;;;;10.46;100.00;100280.97;31351098;28;20415;-79
2023/04/06 20:54:43;;;;;;;8.13;4.40;;;;;;;10.42;100.00;100291.13;31397760;28;20101;-79
2023/04/06 21:09:45;;;;;;;6.37;3.40;;;;;;;10.40;100.00;100282.63;31394856;28;21622;-76
2023/04/06 21:24:47;;;;;;;7.23;3.20;;;;;;;10.34;100.00;100288.94;31350580;28;20103;-76
2023/04/06 21:39:49;;;;;;;6.00;3.50;;;;;;;10.16;100.00;100311.66;31365820;28;20045;-76
2023/04/06 21:54:50;;;;;;;3.60;2.80;;;;;;;10.37;100.00;100332.31;31389659;28;20109;-76
2023/04/06 22:09:52;;;;;;;3.77;3.00;;;;;;;10.07;100.00;100335.81;31383521;28;20057;-74
2023/04/06 22:24:55;;;;;;;6.77;4.10;;;;;;;10.03;100.00;100329.66;31375043;28;20492;-74
2023/04/06 22:39:57;;;;;;;8.67;3.77;;;;;;;10.08;100.00;100326.50;31377663;28;20138;-75
2023/04/06 22:54:59;;;;;;;9.70;3.40;;;;;;;10.01;100.00;100323.13;31364406;28;20056;-77
2023/04/06 23:10:02;;;;;;;7.70;4.77;;;;;;;9.98;100.00;100326.63;31375438;28;20052;-75
2023/04/06 23:25:04;;;;;;;15.07;5.70;;;;;;;9.90;100.00;100313.19;31374293;28;20057;-75
2023/04/06 23:40:07;;;;;;;9.97;5.27;;;;;;;9.61;100.00;100303.13;31362533;28;20045;-75
2023/04/06 23:55:09;;;;;;;10.37;5.93;;;;;;;9.33;100.00;100301.50;31341310;28;20078;-74
